sensor_id;sensor_type;location;lat;lon;timestamp;P1;durP1;ratioP1;P2;durP2;ratioP2
26502;SDS011;14177;51.520;6.764;2023-08-12T00:02:12;9.05;;;5.38;;
26502;SDS011;14177;51.520;6.764;2023-08-12T00:04:39;9.88;;;5.45;;
26502;SDS011;14177;51.520;6.764;2023-08-12T00:07:06;9.70;;;5.38;;
26502;SDS011;14177;51.520;6.764;2023-08-12T00:09:33;8.68;;;5.07;;
26502;SDS011;14177;51.520;6.764;2023-08-12T00:12:00;8.27;;;4.97;;
26502;SDS011;14177;51.520;6.764;2023-08-12T00:14:27;7.68;;;4.85;;
26502;SDS011;14177;51.520;6.764;2023-08-12T00:16:54;7.88;;;5.55;;
26502;SDS011;14177;51.520;6.764;2023-08-12T00:19:22;9.18;;;5.60;;
26502;SDS011;14177;51.520;6.764;2023-08-12T00:21:49;10.73;;;5.47;;
26502;SDS011;14177;51.520;6.764;2023-08-12T00:24:18;11.45;;;5.80;;
26502;SDS011;14177;51.520;6.764;2023-08-12T00:26:45;12.70;;;7.20;;
26502;SDS011;14177;51.520;6.764;2023-08-12T00:29:12;10.88;;;6.85;;
26502;SDS011;14177;51.520;6.764;2023-08-12T00:31:39;13.27;;;7.63;;
26502;SDS011;14177;51.520;6.764;2023-08-12T00:34:06;14.40;;;8.43;;
26502;SDS011;14177;51.520;6.764;2023-08-12T00:36:33;12.00;;;7.88;;
26502;SDS011;14177;51.520;6.764;2023-08-12T00:39:00;15.98;;;8.10;;
26502;SDS011;14177;51.520;6.764;2023-08-12T00:41:27;12.48;;;8.63;;
26502;SDS011;14177;51.520;6.764;2023-08-12T00:43:54;12.15;;;8.23;;
26502;SDS011;14177;51.520;6.764;2023-08-12T00:46:22;14.38;;;8.52;;
26502;SDS011;14177;51.520;6.764;2023-08-12T00:48:52;13.23;;;8.43;;
26502;SDS011;14177;51.520;6.764;2023-08-12T00:51:19;15.05;;;9.43;;
26502;SDS011;14177;51.520;6.764;2023-08-12T00:53:46;16.60;;;9.15;;
26502;SDS011;14177;51.520;6.764;2023-08-12T00:56:14;18.10;;;9.65;;
26502;SDS011;14177;51.520;6.764;2023-08-12T00:58:42;16.95;;;9.02;;
26502;SDS011;14177;51.520;6.764;2023-08-12T01:01:10;25.40;;;9.93;;
26502;SDS011;14177;51.520;6.764;2023-08-12T01:03:38;19.33;;;10.23;;
26502;SDS011;14177;51.520;6.764;2023-08-12T01:06:06;18.30;;;10.02;;
26502;SDS011;14177;51.520;6.764;2023-08-12T01:08:33;21.67;;;10.93;;
26502;SDS011;14177;51.520;6.764;2023-08-12T01:13:58;23.80;;;11.25;;
26502;SDS011;14177;51.520;6.764;2023-08-12T01:16:47;20.90;;;10.27;;
26502;SDS011;14177;51.520;6.764;2023-08-12T01:19:22;21.92;;;10.73;;
26502;SDS011;14177;51.520;6.764;2023-08-12T01:22:01;20.42;;;10.80;;
26502;SDS011;14177;51.520;6.764;2023-08-12T01:24:34;19.45;;;10.45;;
26502;SDS011;14177;51.520;6.764;2023-08-12T01:27:10;19.65;;;10.30;;
26502;SDS011;14177;51.520;6.764;2023-08-12T01:29:42;17.92;;;9.70;;
26502;SDS011;14177;51.520;6.764;2023-08-12T01:32:25;19.23;;;10.07;;
26502;SDS011;14177;51.520;6.764;2023-08-12T01:37:44;18.30;;;9.40;;
26502;SDS011;14177;51.520;6.764;2023-08-12T01:40:14;17.80;;;9.50;;
26502;SDS011;14177;51.520;6.764;2023-08-12T01:42:43;16.60;;;9.15;;
26502;SDS011;14177;51.520;6.764;2023-08-12T01:45:13;17.63;;;9.45;;
26502;SDS011;14177;51.520;6.764;2023-08-12T01:47:43;16.00;;;8.25;;
26502;SDS011;14177;51.520;6.764;2023-08-12T01:50:10;19.45;;;8.95;;
26502;SDS011;14177;51.520;6.764;2023-08-12T01:52:38;15.23;;;8.82;;
26502;SDS011;14177;51.520;6.764;2023-08-12T01:55:05;17.92;;;8.80;;
26502;SDS011;14177;51.520;6.764;2023-08-12T01:57:32;14.63;;;8.95;;
26502;SDS011;14177;51.520;6.764;2023-08-12T02:00:02;16.90;;;9.85;;
26502;SDS011;14177;51.520;6.764;2023-08-12T02:02:41;16.50;;;9.23;;
26502;SDS011;14177;51.520;6.764;2023-08-12T02:05:13;18.00;;;9.63;;
26502;SDS011;14177;51.520;6.764;2023-08-12T02:07:41;15.55;;;8.70;;
26502;SDS011;14177;51.520;6.764;2023-08-12T02:10:08;16.63;;;8.75;;
26502;SDS011;14177;51.520;6.764;2023-08-12T02:12:36;22.63;;;9.32;;
26502;SDS011;14177;51.520;6.764;2023-08-12T02:15:03;14.18;;;8.15;;
26502;SDS011;14177;51.520;6.764;2023-08-12T02:17:31;16.13;;;8.52;;
26502;SDS011;14177;51.520;6.764;2023-08-12T02:19:58;18.65;;;8.35;;
26502;SDS011;14177;51.520;6.764;2023-08-12T02:22:25;14.05;;;8.63;;
26502;SDS011;14177;51.520;6.764;2023-08-12T02:24:52;15.55;;;9.02;;
26502;SDS011;14177;51.520;6.764;2023-08-12T02:27:19;18.90;;;8.07;;
26502;SDS011;14177;51.520;6.764;2023-08-12T02:29:47;18.30;;;8.13;;
26502;SDS011;14177;51.520;6.764;2023-08-12T02:32:14;17.48;;;8.38;;
26502;SDS011;14177;51.520;6.764;2023-08-12T02:34:41;13.90;;;7.63;;
26502;SDS011;14177;51.520;6.764;2023-08-12T02:37:09;16.20;;;8.25;;
26502;SDS011;14177;51.520;6.764;2023-08-12T02:39:37;13.63;;;7.60;;
26502;SDS011;14177;51.520;6.764;2023-08-12T02:42:04;16.67;;;7.63;;
26502;SDS011;14177;51.520;6.764;2023-08-12T02:44:31;12.48;;;7.28;;
26502;SDS011;14177;51.520;6.764;2023-08-12T02:46:58;14.23;;;8.02;;
26502;SDS011;14177;51.520;6.764;2023-08-12T02:49:25;14.52;;;7.68;;
26502;SDS011;14177;51.520;6.764;2023-08-12T02:51:54;11.82;;;7.60;;
26502;SDS011;14177;51.520;6.764;2023-08-12T02:54:21;12.32;;;7.57;;
26502;SDS011;14177;51.520;6.764;2023-08-12T02:56:49;14.88;;;8.00;;
26502;SDS011;14177;51.520;6.764;2023-08-12T02:59:17;15.80;;;7.55;;
26502;SDS011;14177;51.520;6.764;2023-08-12T03:01:44;16.90;;;7.45;;
26502;SDS011;14177;51.520;6.764;2023-08-12T03:04:11;14.43;;;7.85;;
26502;SDS011;14177;51.520;6.764;2023-08-12T03:06:38;12.38;;;7.82;;
26502;SDS011;14177;51.520;6.764;2023-08-12T03:09:05;12.57;;;7.72;;
26502;SDS011;14177;51.520;6.764;2023-08-12T03:11:33;11.95;;;7.13;;
26502;SDS011;14177;51.520;6.764;2023-08-12T03:14:03;14.35;;;7.60;;
26502;SDS011;14177;51.520;6.764;2023-08-12T03:16:30;11.52;;;7.10;;
26502;SDS011;14177;51.520;6.764;2023-08-12T03:18:57;12.20;;;6.97;;
26502;SDS011;14177;51.520;6.764;2023-08-12T03:21:24;11.40;;;7.43;;
26502;SDS011;14177;51.520;6.764;2023-08-12T03:23:51;12.98;;;6.47;;
26502;SDS011;14177;51.520;6.764;2023-08-12T03:26:18;13.18;;;6.72;;
26502;SDS011;14177;51.520;6.764;2023-08-12T03:28:46;11.60;;;6.80;;
26502;SDS011;14177;51.520;6.764;2023-08-12T03:31:16;10.52;;;6.47;;
26502;SDS011;14177;51.520;6.764;2023-08-12T03:33:44;12.10;;;6.70;;
26502;SDS011;14177;51.520;6.764;2023-08-12T03:36:12;10.45;;;6.00;;
26502;SDS011;14177;51.520;6.764;2023-08-12T03:38:40;13.00;;;5.88;;
26502;SDS011;14177;51.520;6.764;2023-08-12T03:41:12;9.23;;;5.82;;
26502;SDS011;14177;51.520;6.764;2023-08-12T03:43:39;8.82;;;5.97;;
26502;SDS011;14177;51.520;6.764;2023-08-12T03:46:08;12.55;;;6.13;;
26502;SDS011;14177;51.520;6.764;2023-08-12T03:48:36;11.27;;;5.50;;
26502;SDS011;14177;51.520;6.764;2023-08-12T03:51:03;10.23;;;6.18;;
26502;SDS011;14177;51.520;6.764;2023-08-12T03:53:33;9.80;;;6.18;;
26502;SDS011;14177;51.520;6.764;2023-08-12T03:56:00;9.95;;;6.03;;
26502;SDS011;14177;51.520;6.764;2023-08-12T03:58:28;10.65;;;6.60;;
26502;SDS011;14177;51.520;6.764;2023-08-12T04:00:57;16.30;;;8.38;;
26502;SDS011;14177;51.520;6.764;2023-08-12T04:03:24;17.95;;;8.68;;
26502;SDS011;14177;51.520;6.764;2023-08-12T04:05:52;17.30;;;9.02;;
26502;SDS011;14177;51.520;6.764;2023-08-12T04:08:21;19.70;;;10.75;;
26502;SDS011;14177;51.520;6.764;2023-08-12T04:10:50;20.00;;;11.07;;
26502;SDS011;14177;51.520;6.764;2023-08-12T04:13:18;18.02;;;10.93;;
26502;SDS011;14177;51.520;6.764;2023-08-12T04:15:51;27.00;;;13.32;;
26502;SDS011;14177;51.520;6.764;2023-08-12T04:18:21;23.55;;;12.93;;
26502;SDS011;14177;51.520;6.764;2023-08-12T04:20:49;23.17;;;12.02;;
26502;SDS011;14177;51.520;6.764;2023-08-12T04:23:17;18.90;;;11.48;;
26502;SDS011;14177;51.520;6.764;2023-08-12T04:25:48;24.75;;;12.73;;
26502;SDS011;14177;51.520;6.764;2023-08-12T04:28:17;22.02;;;11.90;;
26502;SDS011;14177;51.520;6.764;2023-08-12T04:30:47;20.58;;;11.68;;
26502;SDS011;14177;51.520;6.764;2023-08-12T04:33:18;23.67;;;13.48;;
26502;SDS011;14177;51.520;6.764;2023-08-12T04:35:48;26.90;;;12.93;;
26502;SDS011;14177;51.520;6.764;2023-08-12T04:38:17;31.40;;;13.35;;
26502;SDS011;14177;51.520;6.764;2023-08-12T04:40:45;29.77;;;13.48;;
26502;SDS011;14177;51.520;6.764;2023-08-12T04:43:13;28.88;;;13.23;;
26502;SDS011;14177;51.520;6.764;2023-08-12T04:45:44;23.40;;;12.82;;
26502;SDS011;14177;51.520;6.764;2023-08-12T04:48:17;27.60;;;13.13;;
26502;SDS011;14177;51.520;6.764;2023-08-12T04:50:44;23.30;;;11.95;;
26502;SDS011;14177;51.520;6.764;2023-08-12T04:53:11;20.27;;;11.57;;
26502;SDS011;14177;51.520;6.764;2023-08-12T04:55:39;24.85;;;13.43;;
26502;SDS011;14177;51.520;6.764;2023-08-12T04:58:07;31.33;;;15.65;;
26502;SDS011;14177;51.520;6.764;2023-08-12T05:00:34;26.13;;;13.52;;
26502;SDS011;14177;51.520;6.764;2023-08-12T05:03:02;24.17;;;12.43;;
26502;SDS011;14177;51.520;6.764;2023-08-12T05:05:30;23.63;;;13.00;;
26502;SDS011;14177;51.520;6.764;2023-08-12T05:07:58;28.33;;;13.55;;
26502;SDS011;14177;51.520;6.764;2023-08-12T05:10:26;27.23;;;13.38;;
26502;SDS011;14177;51.520;6.764;2023-08-12T05:12:53;21.67;;;12.00;;
26502;SDS011;14177;51.520;6.764;2023-08-12T05:15:24;22.30;;;11.77;;
26502;SDS011;14177;51.520;6.764;2023-08-12T05:17:52;18.92;;;10.93;;
26502;SDS011;14177;51.520;6.764;2023-08-12T05:20:21;19.60;;;10.38;;
26502;SDS011;14177;51.520;6.764;2023-08-12T05:22:48;18.20;;;9.77;;
26502;SDS011;14177;51.520;6.764;2023-08-12T05:25:15;17.33;;;9.85;;
26502;SDS011;14177;51.520;6.764;2023-08-12T05:27:42;21.17;;;9.70;;
26502;SDS011;14177;51.520;6.764;2023-08-12T05:30:10;16.40;;;9.48;;
26502;SDS011;14177;51.520;6.764;2023-08-12T05:32:37;19.08;;;10.07;;
26502;SDS011;14177;51.520;6.764;2023-08-12T05:35:04;14.60;;;8.88;;
26502;SDS011;14177;51.520;6.764;2023-08-12T05:37:33;16.92;;;9.23;;
26502;SDS011;14177;51.520;6.764;2023-08-12T05:40:00;15.85;;;9.35;;
26502;SDS011;14177;51.520;6.764;2023-08-12T05:42:27;16.80;;;8.93;;
26502;SDS011;14177;51.520;6.764;2023-08-12T05:44:54;17.92;;;8.77;;
26502;SDS011;14177;51.520;6.764;2023-08-12T05:47:21;13.48;;;8.43;;
26502;SDS011;14177;51.520;6.764;2023-08-12T05:49:48;15.07;;;8.93;;
26502;SDS011;14177;51.520;6.764;2023-08-12T05:52:15;17.17;;;8.77;;
26502;SDS011;14177;51.520;6.764;2023-08-12T05:54:42;17.55;;;8.40;;
26502;SDS011;14177;51.520;6.764;2023-08-12T05:57:09;13.38;;;8.30;;
26502;SDS011;14177;51.520;6.764;2023-08-12T05:59:37;16.67;;;8.80;;
26502;SDS011;14177;51.520;6.764;2023-08-12T06:02:04;14.38;;;8.43;;
26502;SDS011;14177;51.520;6.764;2023-08-12T06:04:31;14.23;;;8.50;;
26502;SDS011;14177;51.520;6.764;2023-08-12T06:06:58;15.75;;;8.18;;
26502;SDS011;14177;51.520;6.764;2023-08-12T06:09:25;19.50;;;8.75;;
26502;SDS011;14177;51.520;6.764;2023-08-12T06:11:52;19.73;;;8.15;;
26502;SDS011;14177;51.520;6.764;2023-08-12T06:14:19;14.73;;;8.07;;
26502;SDS011;14177;51.520;6.764;2023-08-12T06:16:46;13.63;;;7.97;;
26502;SDS011;14177;51.520;6.764;2023-08-12T06:19:13;12.00;;;7.30;;
26502;SDS011;14177;51.520;6.764;2023-08-12T06:21:41;12.52;;;7.35;;
26502;SDS011;14177;51.520;6.764;2023-08-12T06:24:08;12.55;;;7.47;;
26502;SDS011;14177;51.520;6.764;2023-08-12T06:26:35;13.77;;;7.93;;
26502;SDS011;14177;51.520;6.764;2023-08-12T06:29:02;16.55;;;7.82;;
26502;SDS011;14177;51.520;6.764;2023-08-12T06:31:31;17.27;;;7.68;;
26502;SDS011;14177;51.520;6.764;2023-08-12T06:33:59;14.02;;;7.57;;
26502;SDS011;14177;51.520;6.764;2023-08-12T06:36:27;10.85;;;6.60;;
26502;SDS011;14177;51.520;6.764;2023-08-12T06:38:54;12.60;;;6.57;;
26502;SDS011;14177;51.520;6.764;2023-08-12T06:41:21;15.50;;;6.40;;
26502;SDS011;14177;51.520;6.764;2023-08-12T06:43:48;17.10;;;7.10;;
26502;SDS011;14177;51.520;6.764;2023-08-12T06:46:15;10.45;;;5.85;;
26502;SDS011;14177;51.520;6.764;2023-08-12T06:48:43;11.00;;;6.18;;
26502;SDS011;14177;51.520;6.764;2023-08-12T06:51:10;10.05;;;6.35;;
26502;SDS011;14177;51.520;6.764;2023-08-12T06:53:40;13.27;;;6.03;;
26502;SDS011;14177;51.520;6.764;2023-08-12T06:56:08;12.45;;;6.45;;
26502;SDS011;14177;51.520;6.764;2023-08-12T06:58:35;11.70;;;6.50;;
26502;SDS011;14177;51.520;6.764;2023-08-12T07:01:02;11.35;;;6.95;;
26502;SDS011;14177;51.520;6.764;2023-08-12T07:03:30;13.27;;;6.43;;
26502;SDS011;14177;51.520;6.764;2023-08-12T07:05:57;13.50;;;6.80;;
26502;SDS011;14177;51.520;6.764;2023-08-12T07:08:24;10.18;;;5.80;;
26502;SDS011;14177;51.520;6.764;2023-08-12T07:10:53;8.93;;;6.13;;
26502;SDS011;14177;51.520;6.764;2023-08-12T07:13:20;10.68;;;6.38;;
26502;SDS011;14177;51.520;6.764;2023-08-12T07:15:47;15.35;;;6.43;;
26502;SDS011;14177;51.520;6.764;2023-08-12T07:18:15;12.05;;;6.75;;
26502;SDS011;14177;51.520;6.764;2023-08-12T07:20:42;13.40;;;6.55;;
26502;SDS011;14177;51.520;6.764;2023-08-12T07:23:09;10.57;;;6.28;;
26502;SDS011;14177;51.520;6.764;2023-08-12T07:25:36;8.27;;;6.47;;
26502;SDS011;14177;51.520;6.764;2023-08-12T07:28:04;11.90;;;6.78;;
26502;SDS011;14177;51.520;6.764;2023-08-12T07:30:33;12.70;;;7.10;;
26502;SDS011;14177;51.520;6.764;2023-08-12T07:33:02;13.50;;;7.43;;
26502;SDS011;14177;51.520;6.764;2023-08-12T07:35:31;18.05;;;8.10;;
26502;SDS011;14177;51.520;6.764;2023-08-12T07:37:58;16.05;;;7.63;;
26502;SDS011;14177;51.520;6.764;2023-08-12T07:40:25;12.27;;;7.68;;
26502;SDS011;14177;51.520;6.764;2023-08-12T07:42:52;16.30;;;7.53;;
26502;SDS011;14177;51.520;6.764;2023-08-12T07:45:19;11.40;;;6.93;;
26502;SDS011;14177;51.520;6.764;2023-08-12T07:47:48;15.80;;;7.80;;
26502;SDS011;14177;51.520;6.764;2023-08-12T07:50:17;12.82;;;6.50;;
26502;SDS011;14177;51.520;6.764;2023-08-12T07:52:44;14.10;;;7.72;;
26502;SDS011;14177;51.520;6.764;2023-08-12T07:55:12;12.35;;;6.80;;
26502;SDS011;14177;51.520;6.764;2023-08-12T07:57:39;9.40;;;6.32;;
26502;SDS011;14177;51.520;6.764;2023-08-12T08:00:06;12.10;;;6.47;;
26502;SDS011;14177;51.520;6.764;2023-08-12T08:02:35;9.38;;;6.07;;
26502;SDS011;14177;51.520;6.764;2023-08-12T08:05:02;9.80;;;6.45;;
26502;SDS011;14177;51.520;6.764;2023-08-12T08:07:30;8.55;;;6.40;;
26502;SDS011;14177;51.520;6.764;2023-08-12T08:09:58;9.48;;;6.82;;
26502;SDS011;14177;51.520;6.764;2023-08-12T08:12:25;11.00;;;6.72;;
26502;SDS011;14177;51.520;6.764;2023-08-12T08:14:52;9.82;;;6.70;;
26502;SDS011;14177;51.520;6.764;2023-08-12T08:17:20;10.77;;;6.53;;
26502;SDS011;14177;51.520;6.764;2023-08-12T08:19:47;11.27;;;6.90;;
26502;SDS011;14177;51.520;6.764;2023-08-12T08:22:14;10.55;;;6.68;;
26502;SDS011;14177;51.520;6.764;2023-08-12T08:24:41;9.43;;;5.97;;
26502;SDS011;14177;51.520;6.764;2023-08-12T08:27:08;7.60;;;5.15;;
26502;SDS011;14177;51.520;6.764;2023-08-12T08:29:48;10.55;;;4.80;;
26502;SDS011;14177;51.520;6.764;2023-08-12T08:33:22;7.38;;;4.28;;
26502;SDS011;14177;51.520;6.764;2023-08-12T08:36:31;5.97;;;3.88;;
26502;SDS011;14177;51.520;6.764;2023-08-12T08:38:58;5.13;;;3.97;;
26502;SDS011;14177;51.520;6.764;2023-08-12T08:41:25;10.27;;;4.05;;
26502;SDS011;14177;51.520;6.764;2023-08-12T08:43:59;7.35;;;3.60;;
26502;SDS011;14177;51.520;6.764;2023-08-12T08:46:30;6.95;;;3.67;;
26502;SDS011;14177;51.520;6.764;2023-08-12T08:49:00;6.97;;;3.35;;
26502;SDS011;14177;51.520;6.764;2023-08-12T08:51:31;4.38;;;2.72;;
26502;SDS011;14177;51.520;6.764;2023-08-12T08:53:59;4.75;;;3.10;;
26502;SDS011;14177;51.520;6.764;2023-08-12T08:56:30;5.60;;;3.25;;
26502;SDS011;14177;51.520;6.764;2023-08-12T08:59:07;5.53;;;3.63;;
26502;SDS011;14177;51.520;6.764;2023-08-12T09:01:35;5.80;;;3.50;;
26502;SDS011;14177;51.520;6.764;2023-08-12T09:04:03;8.15;;;3.88;;
26502;SDS011;14177;51.520;6.764;2023-08-12T09:06:31;4.38;;;3.10;;
26502;SDS011;14177;51.520;6.764;2023-08-12T09:09:02;5.05;;;2.95;;
26502;SDS011;14177;51.520;6.764;2023-08-12T09:11:35;5.18;;;2.95;;
26502;SDS011;14177;51.520;6.764;2023-08-12T09:14:05;4.80;;;3.60;;
26502;SDS011;14177;51.520;6.764;2023-08-12T09:16:33;5.03;;;2.83;;
26502;SDS011;14177;51.520;6.764;2023-08-12T09:19:00;6.95;;;3.25;;
26502;SDS011;14177;51.520;6.764;2023-08-12T09:21:27;8.55;;;3.80;;
26502;SDS011;14177;51.520;6.764;2023-08-12T09:23:55;9.40;;;4.75;;
26502;SDS011;14177;51.520;6.764;2023-08-12T09:26:22;11.30;;;5.50;;
26502;SDS011;14177;51.520;6.764;2023-08-12T09:28:49;7.07;;;3.38;;
26502;SDS011;14177;51.520;6.764;2023-08-12T09:31:23;7.60;;;3.92;;
26502;SDS011;14177;51.520;6.764;2023-08-12T09:33:59;6.25;;;3.33;;
26502;SDS011;14177;51.520;6.764;2023-08-12T09:36:31;6.72;;;3.90;;
26502;SDS011;14177;51.520;6.764;2023-08-12T09:38:58;7.15;;;3.40;;
26502;SDS011;14177;51.520;6.764;2023-08-12T09:41:28;5.60;;;2.90;;
26502;SDS011;14177;51.520;6.764;2023-08-12T09:43:55;7.00;;;3.10;;
26502;SDS011;14177;51.520;6.764;2023-08-12T09:46:25;5.30;;;2.20;;
26502;SDS011;14177;51.520;6.764;2023-08-12T09:48:52;4.90;;;2.55;;
26502;SDS011;14177;51.520;6.764;2023-08-12T09:51:20;5.57;;;2.47;;
26502;SDS011;14177;51.520;6.764;2023-08-12T09:53:50;4.05;;;2.30;;
26502;SDS011;14177;51.520;6.764;2023-08-12T09:56:19;3.00;;;2.00;;
26502;SDS011;14177;51.520;6.764;2023-08-12T09:58:49;7.30;;;2.85;;
26502;SDS011;14177;51.520;6.764;2023-08-12T10:01:19;3.80;;;2.40;;
26502;SDS011;14177;51.520;6.764;2023-08-12T10:03:50;5.68;;;2.58;;
26502;SDS011;14177;51.520;6.764;2023-08-12T10:06:18;4.25;;;2.03;;
26502;SDS011;14177;51.520;6.764;2023-08-12T10:08:47;6.32;;;2.60;;
26502;SDS011;14177;51.520;6.764;2023-08-12T10:11:15;9.00;;;2.97;;
26502;SDS011;14177;51.520;6.764;2023-08-12T10:13:43;6.95;;;3.45;;
26502;SDS011;14177;51.520;6.764;2023-08-12T10:16:11;5.13;;;3.13;;
26502;SDS011;14177;51.520;6.764;2023-08-12T10:18:39;5.95;;;2.85;;
26502;SDS011;14177;51.520;6.764;2023-08-12T10:21:10;9.23;;;3.92;;
26502;SDS011;14177;51.520;6.764;2023-08-12T10:23:41;6.00;;;3.63;;
26502;SDS011;14177;51.520;6.764;2023-08-12T10:26:13;7.32;;;3.30;;
26502;SDS011;14177;51.520;6.764;2023-08-12T10:28:42;4.65;;;2.80;;
26502;SDS011;14177;51.520;6.764;2023-08-12T10:31:11;6.05;;;3.03;;
26502;SDS011;14177;51.520;6.764;2023-08-12T10:33:38;6.18;;;3.45;;
26502;SDS011;14177;51.520;6.764;2023-08-12T10:36:06;6.82;;;3.95;;
26502;SDS011;14177;51.520;6.764;2023-08-12T10:38:35;7.10;;;3.90;;
26502;SDS011;14177;51.520;6.764;2023-08-12T10:41:22;8.55;;;2.60;;
26502;SDS011;14177;51.520;6.764;2023-08-12T10:46:30;8.98;;;3.03;;
26502;SDS011;14177;51.520;6.764;2023-08-12T10:49:03;6.15;;;3.20;;
26502;SDS011;14177;51.520;6.764;2023-08-12T10:51:46;4.53;;;1.92;;
26502;SDS011;14177;51.520;6.764;2023-08-12T10:54:16;4.22;;;2.10;;
26502;SDS011;14177;51.520;6.764;2023-08-12T11:04:55;3.58;;;1.73;;
26502;SDS011;14177;51.520;6.764;2023-08-12T11:07:46;7.47;;;3.17;;
26502;SDS011;14177;51.520;6.764;2023-08-12T11:10:19;7.95;;;3.25;;
26502;SDS011;14177;51.520;6.764;2023-08-12T11:15:18;5.35;;;2.20;;
26502;SDS011;14177;51.520;6.764;2023-08-12T11:18:18;4.20;;;2.00;;
26502;SDS011;14177;51.520;6.764;2023-08-12T11:20:47;4.65;;;2.42;;
26502;SDS011;14177;51.520;6.764;2023-08-12T11:23:20;2.75;;;1.70;;
26502;SDS011;14177;51.520;6.764;2023-08-12T11:25:48;3.55;;;1.98;;
26502;SDS011;14177;51.520;6.764;2023-08-12T11:28:17;1.83;;;1.30;;
26502;SDS011;14177;51.520;6.764;2023-08-12T11:30:48;2.92;;;1.50;;
26502;SDS011;14177;51.520;6.764;2023-08-12T11:33:15;2.38;;;1.58;;
26502;SDS011;14177;51.520;6.764;2023-08-12T11:35:45;1.23;;;1.13;;
26502;SDS011;14177;51.520;6.764;2023-08-12T11:38:12;3.35;;;1.45;;
26502;SDS011;14177;51.520;6.764;2023-08-12T11:40:41;1.83;;;1.33;;
26502;SDS011;14177;51.520;6.764;2023-08-12T11:43:09;3.20;;;1.60;;
26502;SDS011;14177;51.520;6.764;2023-08-12T11:45:41;2.35;;;2.08;;
26502;SDS011;14177;51.520;6.764;2023-08-12T11:48:09;2.58;;;1.80;;
26502;SDS011;14177;51.520;6.764;2023-08-12T11:50:37;3.83;;;2.17;;
26502;SDS011;14177;51.520;6.764;2023-08-12T11:53:05;2.47;;;1.85;;
26502;SDS011;14177;51.520;6.764;2023-08-12T11:55:33;5.28;;;2.67;;
26502;SDS011;14177;51.520;6.764;2023-08-12T11:58:00;7.28;;;3.30;;
26502;SDS011;14177;51.520;6.764;2023-08-12T12:00:27;6.90;;;4.00;;
26502;SDS011;14177;51.520;6.764;2023-08-12T12:02:55;4.57;;;4.07;;
26502;SDS011;14177;51.520;6.764;2023-08-12T12:05:23;5.28;;;4.15;;
26502;SDS011;14177;51.520;6.764;2023-08-12T12:07:56;5.90;;;4.43;;
26502;SDS011;14177;51.520;6.764;2023-08-12T12:10:27;7.25;;;4.38;;
26502;SDS011;14177;51.520;6.764;2023-08-12T12:13:01;7.25;;;4.55;;
26502;SDS011;14177;51.520;6.764;2023-08-12T12:15:31;10.38;;;5.13;;
26502;SDS011;14177;51.520;6.764;2023-08-12T12:18:08;8.05;;;5.80;;
26502;SDS011;14177;51.520;6.764;2023-08-12T12:20:56;8.25;;;6.20;;
26502;SDS011;14177;51.520;6.764;2023-08-12T12:23:28;7.68;;;4.85;;
26502;SDS011;14177;51.520;6.764;2023-08-12T12:25:57;6.65;;;5.88;;
26502;SDS011;14177;51.520;6.764;2023-08-12T12:28:30;7.35;;;4.85;;
26502;SDS011;14177;51.520;6.764;2023-08-12T12:30:57;8.10;;;5.25;;
26502;SDS011;14177;51.520;6.764;2023-08-12T12:33:24;6.07;;;4.72;;
26502;SDS011;14177;51.520;6.764;2023-08-12T12:35:51;6.53;;;5.28;;
26502;SDS011;14177;51.520;6.764;2023-08-12T12:38:25;6.38;;;5.40;;
26502;SDS011;14177;51.520;6.764;2023-08-12T12:40:53;6.68;;;5.20;;
26502;SDS011;14177;51.520;6.764;2023-08-12T12:43:20;9.82;;;6.20;;
26502;SDS011;14177;51.520;6.764;2023-08-12T12:45:47;7.18;;;6.00;;
26502;SDS011;14177;51.520;6.764;2023-08-12T12:48:14;8.95;;;5.57;;
26502;SDS011;14177;51.520;6.764;2023-08-12T12:50:41;7.68;;;5.70;;
26502;SDS011;14177;51.520;6.764;2023-08-12T12:53:08;7.90;;;5.97;;
26502;SDS011;14177;51.520;6.764;2023-08-12T12:55:35;9.80;;;6.30;;
26502;SDS011;14177;51.520;6.764;2023-08-12T12:58:02;8.88;;;5.97;;
26502;SDS011;14177;51.520;6.764;2023-08-12T13:00:29;8.52;;;5.47;;
26502;SDS011;14177;51.520;6.764;2023-08-12T13:02:56;8.70;;;6.05;;
26502;SDS011;14177;51.520;6.764;2023-08-12T13:05:24;6.20;;;4.80;;
26502;SDS011;14177;51.520;6.764;2023-08-12T13:07:51;7.28;;;4.80;;
26502;SDS011;14177;51.520;6.764;2023-08-12T13:10:18;10.52;;;4.85;;
26502;SDS011;14177;51.520;6.764;2023-08-12T13:12:45;5.30;;;4.35;;
26502;SDS011;14177;51.520;6.764;2023-08-12T13:15:12;5.93;;;4.82;;
26502;SDS011;14177;51.520;6.764;2023-08-12T13:17:43;6.05;;;4.22;;
26502;SDS011;14177;51.520;6.764;2023-08-12T13:20:10;4.88;;;4.32;;
26502;SDS011;14177;51.520;6.764;2023-08-12T13:22:37;4.97;;;4.47;;
26502;SDS011;14177;51.520;6.764;2023-08-12T13:25:05;7.32;;;5.40;;
26502;SDS011;14177;51.520;6.764;2023-08-12T13:27:33;3.92;;;3.53;;
26502;SDS011;14177;51.520;6.764;2023-08-12T13:30:00;6.43;;;4.00;;
26502;SDS011;14177;51.520;6.764;2023-08-12T13:32:27;6.38;;;3.10;;
26502;SDS011;14177;51.520;6.764;2023-08-12T13:34:55;3.97;;;2.60;;
26502;SDS011;14177;51.520;6.764;2023-08-12T13:37:32;3.70;;;2.60;;
26502;SDS011;14177;51.520;6.764;2023-08-12T13:40:02;3.08;;;2.17;;
26502;SDS011;14177;51.520;6.764;2023-08-12T13:42:29;2.90;;;2.28;;
26502;SDS011;14177;51.520;6.764;2023-08-12T13:44:57;2.45;;;2.15;;
26502;SDS011;14177;51.520;6.764;2023-08-12T13:47:28;4.07;;;2.13;;
26502;SDS011;14177;51.520;6.764;2023-08-12T13:49:55;2.20;;;1.70;;
26502;SDS011;14177;51.520;6.764;2023-08-12T13:52:25;4.47;;;2.00;;
26502;SDS011;14177;51.520;6.764;2023-08-12T13:54:52;2.33;;;1.83;;
26502;SDS011;14177;51.520;6.764;2023-08-12T13:57:20;2.35;;;1.90;;
26502;SDS011;14177;51.520;6.764;2023-08-12T13:59:47;5.07;;;1.60;;
26502;SDS011;14177;51.520;6.764;2023-08-12T14:02:14;2.47;;;1.80;;
26502;SDS011;14177;51.520;6.764;2023-08-12T14:04:42;2.63;;;1.88;;
26502;SDS011;14177;51.520;6.764;2023-08-12T14:07:09;3.63;;;1.63;;
26502;SDS011;14177;51.520;6.764;2023-08-12T14:09:36;4.32;;;1.60;;
26502;SDS011;14177;51.520;6.764;2023-08-12T14:12:03;2.42;;;1.55;;
26502;SDS011;14177;51.520;6.764;2023-08-12T14:14:30;2.53;;;1.60;;
26502;SDS011;14177;51.520;6.764;2023-08-12T14:16:57;5.88;;;2.05;;
26502;SDS011;14177;51.520;6.764;2023-08-12T14:19:25;4.00;;;1.77;;
26502;SDS011;14177;51.520;6.764;2023-08-12T14:21:52;3.97;;;1.77;;
26502;SDS011;14177;51.520;6.764;2023-08-12T14:24:19;2.25;;;1.38;;
26502;SDS011;14177;51.520;6.764;2023-08-12T14:26:46;5.82;;;1.70;;
26502;SDS011;14177;51.520;6.764;2023-08-12T14:29:13;2.63;;;1.23;;
26502;SDS011;14177;51.520;6.764;2023-08-12T14:31:40;1.48;;;1.20;;
26502;SDS011;14177;51.520;6.764;2023-08-12T14:34:07;6.07;;;1.40;;
26502;SDS011;14177;51.520;6.764;2023-08-12T14:36:34;2.72;;;1.50;;
26502;SDS011;14177;51.520;6.764;2023-08-12T14:39:02;2.97;;;0.98;;
26502;SDS011;14177;51.520;6.764;2023-08-12T14:41:29;0.98;;;0.82;;
26502;SDS011;14177;51.520;6.764;2023-08-12T14:43:56;2.38;;;1.10;;
26502;SDS011;14177;51.520;6.764;2023-08-12T14:46:23;2.05;;;1.00;;
26502;SDS011;14177;51.520;6.764;2023-08-12T14:48:50;2.20;;;0.82;;
26502;SDS011;14177;51.520;6.764;2023-08-12T14:51:19;0.95;;;0.52;;
26502;SDS011;14177;51.520;6.764;2023-08-12T14:53:46;2.15;;;0.68;;
26502;SDS011;14177;51.520;6.764;2023-08-12T14:56:14;3.22;;;0.90;;
26502;SDS011;14177;51.520;6.764;2023-08-12T14:58:41;3.17;;;0.88;;
26502;SDS011;14177;51.520;6.764;2023-08-12T15:01:08;2.92;;;1.00;;
26502;SDS011;14177;51.520;6.764;2023-08-12T15:03:39;2.38;;;0.90;;
26502;SDS011;14177;51.520;6.764;2023-08-12T15:06:06;3.13;;;0.95;;
26502;SDS011;14177;51.520;6.764;2023-08-12T15:08:33;2.65;;;0.90;;